Flight Track Log - Related Links

Times and Time Zones

All times are in EDT time to prevent confusion due to time zone crossing. See the SKW6330 flight status page for this flight to view local times or setup timezone preferences in your user account.

Time Position Orientation Groundspeed Altitude Reporting Facility
EDT Latitude Longitude Course Direction KTS MPH feet Rate Location/Type
Mon 10:45:33 PM 36.7808 -119.7656 141° Southeast 150 173 2,400  Level Oakland Center
Mon 10:46:34 PM 36.7367 -119.7472 162° South 186 214 3,800 1,463 Climbing Oakland Center
Mon 10:47:36 PM 36.6853 -119.7208 158° South 199 229 5,400 1,756 Climbing Oakland Center
Mon 10:48:00 PM 36.7508 -119.7421 158° South  Level FlightAware Approximate
Mon 10:48:37 PM 36.6217 -119.6875 157° South 205 236 7,400  Level Oakland Center
Mon 10:49:00 PM 36.6637 -119.7069 158° South  Level FlightAware Approximate
Mon 10:49:38 PM 36.5681 -119.6594 157° South 207 238 8,900  Level Oakland Center
Mon 10:50:00 PM 36.6032 -119.6699 141° Southeast  Level FlightAware Approximate
Mon 10:50:39 PM 36.5119 -119.6286 156° South 219 252 10,300  Level Oakland Center
Mon 10:51:40 PM 36.4542 -119.5981 157° South 224 258 11,500 1,122 Climbing Oakland Center
Mon 10:52:42 PM 36.3928 -119.5656 157° South 237 273 12,600 927 Climbing Oakland Center
Mon 10:53:43 PM 36.3311 -119.5339 158° South 240 276 13,400 836 Climbing Oakland Center
Mon 10:54:44 PM 36.2694 -119.5014 157° South 241 277 14,300 836 Climbing Oakland Center
Mon 10:55:45 PM 36.2072 -119.4669 156° South 244 281 15,100 836 Climbing Oakland Center
Mon 10:56:46 PM 36.1450 -119.4339 157° South 243 280 16,000 780 Climbing Oakland Center
Mon 10:57:48 PM 36.0822 -119.3989 156° South 245 282 16,700 732 Climbing Oakland Center
Mon 10:58:49 PM 36.0189 -119.3631 155° Southeast 251 289 17,500 934 Climbing Oakland Center
Mon 10:59:50 PM 35.9433 -119.3200 155° Southeast 250 288 18,600 934 Climbing Oakland Center
Mon 11:00:51 PM 35.8842 -119.2822 153° Southeast 244 281 19,400 738 Climbing Oakland Center
Mon 11:01:52 PM 35.8242 -119.2447 153° Southeast 242 278 20,100 639 Climbing Oakland Center
Mon 11:02:53 PM 35.7672 -119.2083 153° Southeast 236 272 20,700 537 Climbing Oakland Center
Mon 11:03:55 PM 35.7061 -119.1728 155° Southeast 239 275 21,200 537 Climbing Oakland Center
Mon 11:04:56 PM 35.6464 -119.1378 155° Southeast 239 275 21,800 585 Climbing Oakland Center
Mon 11:05:17 PM 35.6214 -119.1253 158° South 243 280 22,000 500 Climbing Los Angeles Center
Mon 11:06:20 PM 35.5586 -119.0928 157° South 243 280 22,500 97 Climbing Los Angeles Center
Mon 11:07:21 PM 35.4950 -119.0567 155° Southeast 249 287 22,200 -541 Descending Los Angeles Center
Mon 11:08:22 PM 35.4283 -119.0189 155° Southeast 261 300 21,400 -927 Descending Los Angeles Center
Mon 11:09:24 PM 35.3658 -118.9811 154° Southeast 253 291 20,300 -1,073 Descending Los Angeles Center
Mon 11:10:25 PM 35.3067 -118.9436 153° Southeast 245 282 19,200 -1,366 Descending Los Angeles Center
Mon 11:11:27 PM 35.2353 -118.8997 153° Southeast 240 276 17,500 -1,355 Descending Los Angeles Center
Mon 11:12:29 PM 35.1756 -118.8631 153° Southeast 240 276 16,400 -1,122 Descending Los Angeles Center
Mon 11:13:30 PM 35.1153 -118.8261 153° Southeast 242 278 15,200 -683 Descending Los Angeles Center
Mon 11:14:32 PM 35.0567 -118.7892 153° Southeast 238 274 15,000 -97 Descending Los Angeles Center
Mon 11:15:34 PM 34.9989 -118.7544 154° Southeast 234 269 15,000  Level Los Angeles Center
Mon 11:16:36 PM 34.9394 -118.7217 156° South 234 269 15,000  Level Los Angeles Center
Mon 11:17:38 PM 34.8733 -118.6875 157° South 236 272 15,000  Level Los Angeles Center
Mon 11:18:39 PM 34.8131 -118.6547 156° South 239 275 15,000 -488 Level Los Angeles Center
Mon 11:19:41 PM 34.7506 -118.6203 156° South 247 284 14,000 -1,113 Descending Los Angeles Center
Mon 11:20:43 PM 34.6922 -118.5903 157° South 229 264 12,700 -1,317 Descending Los Angeles Center
Mon 11:21:44 PM 34.6333 -118.5561 154° Southeast 235 270 11,300 -829 Descending Los Angeles Center
Mon 11:22:46 PM 34.5772 -118.5200 152° Southeast 226 260 11,000 -387 Descending Los Angeles Center
Mon 11:23:48 PM 34.5100 -118.4750 151° Southeast 229 264 10,500 -774 Descending Los Angeles Center
Mon 11:24:50 PM 34.4542 -118.4419 154° Southeast 224 258 9,400 -1,065 Descending Los Angeles Center
Mon 11:25:52 PM 34.3989 -118.4119 156° South 217 250 8,300 -1,016 Descending Los Angeles Center
Mon 11:26:54 PM 34.3464 -118.3836 156° South 209 241 7,300 -1,023 Descending Los Angeles Center
Mon 11:28:01 PM 34.2833 -118.3500 156° South 209 241 6,100 -634 Descending Southern California TRACON
Mon 11:28:57 PM 34.2417 -118.3206 150° Southeast 210 242 6,000 -51 Descending Los Angeles Center
Mon 11:29:59 PM 34.1894 -118.2864 152° Southeast 211 243 6,000  Level Los Angeles Center
Mon 11:31:01 PM 34.1267 -118.2467 152° Southeast 212 244 6,000 -49 Level Los Angeles Center
Mon 11:32:02 PM 34.0767 -118.2136 151° Southeast 208 239 5,900 -537 Descending Los Angeles Center
Mon 11:33:04 PM 34.0472 -118.1586 123° Southeast 220 253 4,900 -958 Descending Los Angeles Center
Mon 11:34:01 PM 34.0500 -118.0833 87° East 212 244 4,000 -1,073 Descending Southern California TRACON
Mon 11:35:07 PM 34.0000 -118.0667 165° South 208 239 2,700 -667 Descending Southern California TRACON
Mon 11:36:07 PM 33.9833 -118.1167 248° West 185 213 2,600 -50 Descending Southern California TRACON
Mon 11:37:07 PM 33.9833 -118.1833 270° West 183 211 2,600  Level Southern California TRACON

Login

Don't have an account? Register now (free) for customized features, flight alerts, and more!